sensor_id;sensor_type;location;lat;lon;timestamp;temperature;humidity
75262;DHT22;63859;51.064;4.580;2022-12-07T00:01:47;4.80;99.90
75262;DHT22;63859;51.064;4.580;2022-12-07T00:04:15;4.80;99.90
75262;DHT22;63859;51.064;4.580;2022-12-07T00:06:43;4.80;99.90
75262;DHT22;63859;51.064;4.580;2022-12-07T00:09:16;4.70;99.90
75262;DHT22;63859;51.064;4.580;2022-12-07T00:11:42;4.70;99.90
75262;DHT22;63859;51.064;4.580;2022-12-07T00:14:12;4.70;99.90
75262;DHT22;63859;51.064;4.580;2022-12-07T00:16:38;4.60;99.90
75262;DHT22;63859;51.064;4.580;2022-12-07T00:19:04;4.60;99.90
75262;DHT22;63859;51.064;4.580;2022-12-07T00:21:33;4.60;99.90
75262;DHT22;63859;51.064;4.580;2022-12-07T00:23:59;4.60;99.90
75262;DHT22;63859;51.064;4.580;2022-12-07T00:26:26;4.60;99.90
75262;DHT22;63859;51.064;4.580;2022-12-07T00:28:55;4.50;99.90
75262;DHT22;63859;51.064;4.580;2022-12-07T00:31:24;4.50;99.90
75262;DHT22;63859;51.064;4.580;2022-12-07T00:33:50;4.50;99.90
75262;DHT22;63859;51.064;4.580;2022-12-07T00:36:18;4.50;99.90
75262;DHT22;63859;51.064;4.580;2022-12-07T00:38:45;4.50;99.90
75262;DHT22;63859;51.064;4.580;2022-12-07T00:41:16;4.40;99.90
75262;DHT22;63859;51.064;4.580;2022-12-07T00:43:42;4.40;99.90
75262;DHT22;63859;51.064;4.580;2022-12-07T00:46:09;4.30;99.90
75262;DHT22;63859;51.064;4.580;2022-12-07T00:48:35;4.30;99.90
75262;DHT22;63859;51.064;4.580;2022-12-07T00:51:01;4.30;99.90
75262;DHT22;63859;51.064;4.580;2022-12-07T00:53:27;4.30;99.90
75262;DHT22;63859;51.064;4.580;2022-12-07T00:55:53;4.30;99.90
75262;DHT22;63859;51.064;4.580;2022-12-07T00:58:21;4.30;99.90
75262;DHT22;63859;51.064;4.580;2022-12-07T01:00:46;4.30;99.90
75262;DHT22;63859;51.064;4.580;2022-12-07T01:03:13;4.30;99.90
75262;DHT22;63859;51.064;4.580;2022-12-07T01:05:40;4.30;99.90
75262;DHT22;63859;51.064;4.580;2022-12-07T01:08:06;4.30;99.90
75262;DHT22;63859;51.064;4.580;2022-12-07T01:10:32;4.30;99.90
75262;DHT22;63859;51.064;4.580;2022-12-07T01:12:58;4.20;99.90
75262;DHT22;63859;51.064;4.580;2022-12-07T01:15:25;4.20;99.90
75262;DHT22;63859;51.064;4.580;2022-12-07T01:17:51;4.20;99.90
75262;DHT22;63859;51.064;4.580;2022-12-07T01:20:16;4.20;99.90
75262;DHT22;63859;51.064;4.580;2022-12-07T01:22:43;4.20;99.90
75262;DHT22;63859;51.064;4.580;2022-12-07T01:25:10;4.20;99.90
75262;DHT22;63859;51.064;4.580;2022-12-07T01:27:36;4.20;99.90
75262;DHT22;63859;51.064;4.580;2022-12-07T01:30:04;4.20;99.90
75262;DHT22;63859;51.064;4.580;2022-12-07T01:32:31;4.20;99.90
75262;DHT22;63859;51.064;4.580;2022-12-07T01:34:56;4.20;99.90
75262;DHT22;63859;51.064;4.580;2022-12-07T01:37:22;4.20;99.90
75262;DHT22;63859;51.064;4.580;2022-12-07T01:39:49;4.20;99.90
75262;DHT22;63859;51.064;4.580;2022-12-07T01:42:15;4.20;99.90
75262;DHT22;63859;51.064;4.580;2022-12-07T01:47:47;4.30;99.90
75262;DHT22;63859;51.064;4.580;2022-12-07T01:50:13;4.20;99.90
75262;DHT22;63859;51.064;4.580;2022-12-07T01:52:40;4.20;99.90
75262;DHT22;63859;51.064;4.580;2022-12-07T01:55:09;4.20;99.90
75262;DHT22;63859;51.064;4.580;2022-12-07T01:57:40;4.20;99.90
75262;DHT22;63859;51.064;4.580;2022-12-07T02:00:08;4.20;99.90
75262;DHT22;63859;51.064;4.580;2022-12-07T02:02:47;4.20;99.90
75262;DHT22;63859;51.064;4.580;2022-12-07T02:05:14;4.20;99.90
75262;DHT22;63859;51.064;4.580;2022-12-07T02:07:40;4.10;99.90
75262;DHT22;63859;51.064;4.580;2022-12-07T02:10:38;4.20;99.90
75262;DHT22;63859;51.064;4.580;2022-12-07T02:13:16;4.10;99.90
75262;DHT22;63859;51.064;4.580;2022-12-07T02:29:25;4.10;99.90
75262;DHT22;63859;51.064;4.580;2022-12-07T02:31:59;4.10;99.90
75262;DHT22;63859;51.064;4.580;2022-12-07T02:34:36;4.10;99.90
75262;DHT22;63859;51.064;4.580;2022-12-07T02:37:14;4.10;99.90
75262;DHT22;63859;51.064;4.580;2022-12-07T02:40:01;4.10;99.90
75262;DHT22;63859;51.064;4.580;2022-12-07T02:42:34;4.10;99.90
75262;DHT22;63859;51.064;4.580;2022-12-07T02:45:03;4.20;99.90
75262;DHT22;63859;51.064;4.580;2022-12-07T02:47:30;4.20;99.90
75262;DHT22;63859;51.064;4.580;2022-12-07T02:49:57;4.20;99.90
75262;DHT22;63859;51.064;4.580;2022-12-07T02:52:22;4.20;99.90
75262;DHT22;63859;51.064;4.580;2022-12-07T02:54:48;4.20;99.90
75262;DHT22;63859;51.064;4.580;2022-12-07T03:02:53;4.20;99.90
75262;DHT22;63859;51.064;4.580;2022-12-07T03:05:28;4.20;99.90
75262;DHT22;63859;51.064;4.580;2022-12-07T03:08:03;4.20;99.90
75262;DHT22;63859;51.064;4.580;2022-12-07T03:10:54;4.20;99.90
75262;DHT22;63859;51.064;4.580;2022-12-07T03:16:20;4.20;99.90
75262;DHT22;63859;51.064;4.580;2022-12-07T03:19:03;4.20;99.90
75262;DHT22;63859;51.064;4.580;2022-12-07T03:21:39;4.20;99.90
75262;DHT22;63859;51.064;4.580;2022-12-07T03:24:15;4.20;99.90
75262;DHT22;63859;51.064;4.580;2022-12-07T03:26:49;4.20;99.90
75262;DHT22;63859;51.064;4.580;2022-12-07T03:29:26;4.20;99.90
75262;DHT22;63859;51.064;4.580;2022-12-07T03:32:47;4.20;99.90
75262;DHT22;63859;51.064;4.580;2022-12-07T03:35:04;4.20;99.90
75262;DHT22;63859;51.064;4.580;2022-12-07T03:37:45;4.20;99.90
75262;DHT22;63859;51.064;4.580;2022-12-07T03:40:22;4.20;99.90
75262;DHT22;63859;51.064;4.580;2022-12-07T03:42:50;4.20;99.90
75262;DHT22;63859;51.064;4.580;2022-12-07T03:45:17;4.20;99.90
75262;DHT22;63859;51.064;4.580;2022-12-07T03:48:07;4.20;99.90
75262;DHT22;63859;51.064;4.580;2022-12-07T03:50:50;4.20;99.90
75262;DHT22;63859;51.064;4.580;2022-12-07T03:53:46;4.20;99.90
75262;DHT22;63859;51.064;4.580;2022-12-07T03:56:14;4.20;99.90
75262;DHT22;63859;51.064;4.580;2022-12-07T03:58:40;4.10;99.90
75262;DHT22;63859;51.064;4.580;2022-12-07T04:01:07;4.20;99.90
75262;DHT22;63859;51.064;4.580;2022-12-07T04:03:32;4.10;99.90
75262;DHT22;63859;51.064;4.580;2022-12-07T04:05:58;4.10;99.90
75262;DHT22;63859;51.064;4.580;2022-12-07T04:08:24;4.10;99.90
75262;DHT22;63859;51.064;4.580;2022-12-07T04:10:50;4.10;99.90
75262;DHT22;63859;51.064;4.580;2022-12-07T04:13:16;4.00;99.90
75262;DHT22;63859;51.064;4.580;2022-12-07T04:15:41;4.00;99.90
75262;DHT22;63859;51.064;4.580;2022-12-07T04:18:07;4.00;99.90
75262;DHT22;63859;51.064;4.580;2022-12-07T04:20:33;4.00;99.90
75262;DHT22;63859;51.064;4.580;2022-12-07T04:22:59;4.10;99.90
75262;DHT22;63859;51.064;4.580;2022-12-07T04:25:25;4.00;99.90
75262;DHT22;63859;51.064;4.580;2022-12-07T04:27:50;4.00;99.90
75262;DHT22;63859;51.064;4.580;2022-12-07T04:30:16;4.00;99.90
75262;DHT22;63859;51.064;4.580;2022-12-07T04:32:42;4.00;99.90
75262;DHT22;63859;51.064;4.580;2022-12-07T04:35:08;3.90;99.90
75262;DHT22;63859;51.064;4.580;2022-12-07T04:37:34;3.90;99.90
75262;DHT22;63859;51.064;4.580;2022-12-07T04:39:59;3.90;99.90
75262;DHT22;63859;51.064;4.580;2022-12-07T04:42:25;3.90;99.90
75262;DHT22;63859;51.064;4.580;2022-12-07T04:44:50;3.90;99.90
75262;DHT22;63859;51.064;4.580;2022-12-07T04:47:16;3.80;99.90
75262;DHT22;63859;51.064;4.580;2022-12-07T04:49:42;3.80;99.90
75262;DHT22;63859;51.064;4.580;2022-12-07T04:52:07;3.80;99.90
75262;DHT22;63859;51.064;4.580;2022-12-07T04:54:33;3.80;99.90
75262;DHT22;63859;51.064;4.580;2022-12-07T04:56:59;3.80;99.90
75262;DHT22;63859;51.064;4.580;2022-12-07T04:59:24;3.80;99.90
75262;DHT22;63859;51.064;4.580;2022-12-07T05:01:50;3.80;99.90
75262;DHT22;63859;51.064;4.580;2022-12-07T05:04:16;3.80;99.90
75262;DHT22;63859;51.064;4.580;2022-12-07T05:06:43;3.80;99.90
75262;DHT22;63859;51.064;4.580;2022-12-07T05:09:08;3.80;99.90
75262;DHT22;63859;51.064;4.580;2022-12-07T05:11:34;3.80;99.90
75262;DHT22;63859;51.064;4.580;2022-12-07T05:14:19;3.80;99.90
75262;DHT22;63859;51.064;4.580;2022-12-07T05:16:48;3.80;99.90
75262;DHT22;63859;51.064;4.580;2022-12-07T05:19:14;3.80;99.90
75262;DHT22;63859;51.064;4.580;2022-12-07T05:21:40;3.80;99.90
75262;DHT22;63859;51.064;4.580;2022-12-07T05:24:08;3.80;99.90
75262;DHT22;63859;51.064;4.580;2022-12-07T05:26:35;3.80;99.90
75262;DHT22;63859;51.064;4.580;2022-12-07T05:29:00;3.80;99.90
75262;DHT22;63859;51.064;4.580;2022-12-07T05:31:26;3.80;99.90
75262;DHT22;63859;51.064;4.580;2022-12-07T05:33:52;3.80;99.90
75262;DHT22;63859;51.064;4.580;2022-12-07T05:36:18;3.80;99.90
75262;DHT22;63859;51.064;4.580;2022-12-07T05:38:44;3.80;99.90
75262;DHT22;63859;51.064;4.580;2022-12-07T05:41:12;3.80;99.90
75262;DHT22;63859;51.064;4.580;2022-12-07T05:43:58;3.90;99.90
75262;DHT22;63859;51.064;4.580;2022-12-07T05:46:24;3.80;99.90
75262;DHT22;63859;51.064;4.580;2022-12-07T05:48:49;3.80;99.90
75262;DHT22;63859;51.064;4.580;2022-12-07T05:51:15;3.80;99.90
75262;DHT22;63859;51.064;4.580;2022-12-07T05:53:40;3.80;99.90
75262;DHT22;63859;51.064;4.580;2022-12-07T05:56:06;3.90;99.90
75262;DHT22;63859;51.064;4.580;2022-12-07T05:58:32;3.90;99.90
75262;DHT22;63859;51.064;4.580;2022-12-07T06:01:16;3.90;99.90
75262;DHT22;63859;51.064;4.580;2022-12-07T06:03:42;3.90;99.90
75262;DHT22;63859;51.064;4.580;2022-12-07T06:06:07;3.90;99.90
75262;DHT22;63859;51.064;4.580;2022-12-07T06:08:33;3.90;99.90
75262;DHT22;63859;51.064;4.580;2022-12-07T06:10:58;3.90;99.90
75262;DHT22;63859;51.064;4.580;2022-12-07T06:13:42;3.90;99.90
75262;DHT22;63859;51.064;4.580;2022-12-07T06:16:08;3.90;99.90
75262;DHT22;63859;51.064;4.580;2022-12-07T06:18:33;4.00;99.90
75262;DHT22;63859;51.064;4.580;2022-12-07T06:20:59;3.90;99.90
75262;DHT22;63859;51.064;4.580;2022-12-07T06:23:25;4.00;99.90
75262;DHT22;63859;51.064;4.580;2022-12-07T06:25:50;4.00;99.90
75262;DHT22;63859;51.064;4.580;2022-12-07T06:28:16;3.90;99.90
75262;DHT22;63859;51.064;4.580;2022-12-07T06:30:41;3.90;99.90
75262;DHT22;63859;51.064;4.580;2022-12-07T06:33:07;3.90;99.90
75262;DHT22;63859;51.064;4.580;2022-12-07T06:35:33;3.90;99.90
75262;DHT22;63859;51.064;4.580;2022-12-07T06:37:59;3.90;99.90
75262;DHT22;63859;51.064;4.580;2022-12-07T06:40:24;4.00;99.90
75262;DHT22;63859;51.064;4.580;2022-12-07T06:42:50;4.00;99.90
75262;DHT22;63859;51.064;4.580;2022-12-07T06:45:16;4.00;99.90
75262;DHT22;63859;51.064;4.580;2022-12-07T06:47:41;4.10;99.90
75262;DHT22;63859;51.064;4.580;2022-12-07T06:50:07;4.10;99.90
75262;DHT22;63859;51.064;4.580;2022-12-07T06:52:34;4.00;99.90
75262;DHT22;63859;51.064;4.580;2022-12-07T06:54:59;4.00;99.90
75262;DHT22;63859;51.064;4.580;2022-12-07T06:57:25;4.00;99.90
75262;DHT22;63859;51.064;4.580;2022-12-07T06:59:51;4.00;99.90
75262;DHT22;63859;51.064;4.580;2022-12-07T07:02:17;4.00;99.90
75262;DHT22;63859;51.064;4.580;2022-12-07T07:04:43;4.10;99.90
75262;DHT22;63859;51.064;4.580;2022-12-07T07:07:08;4.00;99.90
75262;DHT22;63859;51.064;4.580;2022-12-07T07:09:34;4.00;99.90
75262;DHT22;63859;51.064;4.580;2022-12-07T07:12:00;4.00;99.90
75262;DHT22;63859;51.064;4.580;2022-12-07T07:14:25;4.00;99.90
75262;DHT22;63859;51.064;4.580;2022-12-07T07:16:51;4.00;99.90
75262;DHT22;63859;51.064;4.580;2022-12-07T07:19:17;4.10;99.90
75262;DHT22;63859;51.064;4.580;2022-12-07T07:21:42;4.00;99.90
75262;DHT22;63859;51.064;4.580;2022-12-07T07:24:08;4.00;99.90
75262;DHT22;63859;51.064;4.580;2022-12-07T07:26:34;4.00;99.90
75262;DHT22;63859;51.064;4.580;2022-12-07T07:28:59;4.00;99.90
75262;DHT22;63859;51.064;4.580;2022-12-07T07:31:25;4.00;99.90
75262;DHT22;63859;51.064;4.580;2022-12-07T07:33:50;4.00;99.90
75262;DHT22;63859;51.064;4.580;2022-12-07T07:36:16;4.00;99.90
75262;DHT22;63859;51.064;4.580;2022-12-07T07:38:41;4.00;99.90
75262;DHT22;63859;51.064;4.580;2022-12-07T07:41:07;3.90;99.90
75262;DHT22;63859;51.064;4.580;2022-12-07T07:43:33;3.90;99.90
75262;DHT22;63859;51.064;4.580;2022-12-07T07:45:58;3.90;99.90
75262;DHT22;63859;51.064;4.580;2022-12-07T07:48:24;3.90;99.90
75262;DHT22;63859;51.064;4.580;2022-12-07T07:50:51;3.90;99.90
75262;DHT22;63859;51.064;4.580;2022-12-07T07:53:16;3.80;99.90
75262;DHT22;63859;51.064;4.580;2022-12-07T07:55:49;3.80;99.90
75262;DHT22;63859;51.064;4.580;2022-12-07T07:58:15;3.80;99.90
75262;DHT22;63859;51.064;4.580;2022-12-07T08:00:40;3.80;99.90
75262;DHT22;63859;51.064;4.580;2022-12-07T08:03:06;3.80;99.90
75262;DHT22;63859;51.064;4.580;2022-12-07T08:05:31;3.80;99.90
75262;DHT22;63859;51.064;4.580;2022-12-07T08:07:57;3.80;99.90
75262;DHT22;63859;51.064;4.580;2022-12-07T08:10:23;3.80;99.90
75262;DHT22;63859;51.064;4.580;2022-12-07T08:12:48;3.80;99.90
75262;DHT22;63859;51.064;4.580;2022-12-07T08:15:33;3.80;99.90
75262;DHT22;63859;51.064;4.580;2022-12-07T08:17:58;3.80;99.90
75262;DHT22;63859;51.064;4.580;2022-12-07T08:20:24;3.80;99.90
75262;DHT22;63859;51.064;4.580;2022-12-07T08:22:50;3.80;99.90
75262;DHT22;63859;51.064;4.580;2022-12-07T08:25:16;3.90;99.90
75262;DHT22;63859;51.064;4.580;2022-12-07T08:27:42;3.90;99.90
75262;DHT22;63859;51.064;4.580;2022-12-07T08:30:08;3.90;99.90
75262;DHT22;63859;51.064;4.580;2022-12-07T08:32:33;3.90;99.90
75262;DHT22;63859;51.064;4.580;2022-12-07T08:34:59;3.90;99.90
75262;DHT22;63859;51.064;4.580;2022-12-07T08:37:24;4.00;99.90
75262;DHT22;63859;51.064;4.580;2022-12-07T08:39:50;4.00;99.90
75262;DHT22;63859;51.064;4.580;2022-12-07T08:42:15;4.00;99.90
75262;DHT22;63859;51.064;4.580;2022-12-07T08:44:41;4.00;99.90
75262;DHT22;63859;51.064;4.580;2022-12-07T08:47:07;4.00;99.90
75262;DHT22;63859;51.064;4.580;2022-12-07T08:49:40;4.00;99.90
75262;DHT22;63859;51.064;4.580;2022-12-07T08:52:06;4.00;99.90
75262;DHT22;63859;51.064;4.580;2022-12-07T08:54:35;4.00;99.90
75262;DHT22;63859;51.064;4.580;2022-12-07T08:57:02;4.10;99.90
75262;DHT22;63859;51.064;4.580;2022-12-07T08:59:28;4.10;99.90
75262;DHT22;63859;51.064;4.580;2022-12-07T09:01:54;4.20;99.90
75262;DHT22;63859;51.064;4.580;2022-12-07T09:04:20;4.30;99.90
75262;DHT22;63859;51.064;4.580;2022-12-07T09:06:46;4.40;99.90
75262;DHT22;63859;51.064;4.580;2022-12-07T09:09:13;4.40;99.90
75262;DHT22;63859;51.064;4.580;2022-12-07T09:11:39;4.50;99.90
75262;DHT22;63859;51.064;4.580;2022-12-07T09:14:05;4.60;99.90
75262;DHT22;63859;51.064;4.580;2022-12-07T09:16:30;4.60;99.90
75262;DHT22;63859;51.064;4.580;2022-12-07T09:18:56;4.60;99.90
75262;DHT22;63859;51.064;4.580;2022-12-07T09:21:22;4.60;99.90
75262;DHT22;63859;51.064;4.580;2022-12-07T09:23:47;4.70;99.90
75262;DHT22;63859;51.064;4.580;2022-12-07T09:26:13;4.70;99.90
75262;DHT22;63859;51.064;4.580;2022-12-07T09:28:39;4.70;99.90
75262;DHT22;63859;51.064;4.580;2022-12-07T09:31:05;4.80;99.90
75262;DHT22;63859;51.064;4.580;2022-12-07T09:33:31;4.70;99.90
75262;DHT22;63859;51.064;4.580;2022-12-07T09:35:57;4.70;99.90
75262;DHT22;63859;51.064;4.580;2022-12-07T09:38:23;4.70;99.90
75262;DHT22;63859;51.064;4.580;2022-12-07T09:40:53;4.70;99.90
75262;DHT22;63859;51.064;4.580;2022-12-07T09:43:24;4.70;99.90
75262;DHT22;63859;51.064;4.580;2022-12-07T09:45:52;4.70;99.90
75262;DHT22;63859;51.064;4.580;2022-12-07T09:48:25;4.70;99.90
75262;DHT22;63859;51.064;4.580;2022-12-07T09:50:55;4.80;99.90
75262;DHT22;63859;51.064;4.580;2022-12-07T09:53:33;4.70;99.90
75262;DHT22;63859;51.064;4.580;2022-12-07T09:56:00;4.80;99.90
75262;DHT22;63859;51.064;4.580;2022-12-07T09:58:27;4.70;99.90
75262;DHT22;63859;51.064;4.580;2022-12-07T10:00:57;4.80;99.90
75262;DHT22;63859;51.064;4.580;2022-12-07T10:03:25;4.80;99.90
75262;DHT22;63859;51.064;4.580;2022-12-07T10:05:52;4.90;99.90
75262;DHT22;63859;51.064;4.580;2022-12-07T10:08:18;4.90;99.90
75262;DHT22;63859;51.064;4.580;2022-12-07T10:10:45;4.90;99.90
75262;DHT22;63859;51.064;4.580;2022-12-07T10:13:13;4.90;99.90
75262;DHT22;63859;51.064;4.580;2022-12-07T10:15:49;5.00;99.90
75262;DHT22;63859;51.064;4.580;2022-12-07T10:18:37;5.00;99.90
75262;DHT22;63859;51.064;4.580;2022-12-07T10:23:33;5.10;99.90
75262;DHT22;63859;51.064;4.580;2022-12-07T10:26:00;5.20;99.90
75262;DHT22;63859;51.064;4.580;2022-12-07T10:28:36;5.20;99.90
75262;DHT22;63859;51.064;4.580;2022-12-07T10:31:03;5.20;99.90
75262;DHT22;63859;51.064;4.580;2022-12-07T10:33:58;5.30;99.90
75262;DHT22;63859;51.064;4.580;2022-12-07T10:36:35;5.30;99.90
75262;DHT22;63859;51.064;4.580;2022-12-07T10:39:22;5.30;99.90
75262;DHT22;63859;51.064;4.580;2022-12-07T10:42:03;5.40;99.90
75262;DHT22;63859;51.064;4.580;2022-12-07T10:44:33;5.40;99.90
75262;DHT22;63859;51.064;4.580;2022-12-07T10:55:27;5.60;99.90
75262;DHT22;63859;51.064;4.580;2022-12-07T11:01:36;5.80;99.90
75262;DHT22;63859;51.064;4.580;2022-12-07T11:07:00;5.80;99.90
75262;DHT22;63859;51.064;4.580;2022-12-07T11:09:57;5.90;99.90
75262;DHT22;63859;51.064;4.580;2022-12-07T11:28:25;6.30;99.90
75262;DHT22;63859;51.064;4.580;2022-12-07T11:36:41;6.50;99.90
75262;DHT22;63859;51.064;4.580;2022-12-07T11:39:33;6.50;99.90
75262;DHT22;63859;51.064;4.580;2022-12-07T11:42:06;6.50;99.90
75262;DHT22;63859;51.064;4.580;2022-12-07T11:44:50;6.60;99.90
75262;DHT22;63859;51.064;4.580;2022-12-07T11:52:58;6.60;99.90
75262;DHT22;63859;51.064;4.580;2022-12-07T11:58:03;6.60;99.90
75262;DHT22;63859;51.064;4.580;2022-12-07T12:00:29;6.70;99.90
75262;DHT22;63859;51.064;4.580;2022-12-07T12:03:15;6.70;99.90
75262;DHT22;63859;51.064;4.580;2022-12-07T12:05:43;6.70;99.90
75262;DHT22;63859;51.064;4.580;2022-12-07T12:08:23;6.80;99.90
75262;DHT22;63859;51.064;4.580;2022-12-07T12:19:34;7.20;99.90
75262;DHT22;63859;51.064;4.580;2022-12-07T12:22:17;7.40;99.90
75262;DHT22;63859;51.064;4.580;2022-12-07T12:24:46;7.70;99.90
75262;DHT22;63859;51.064;4.580;2022-12-07T12:27:36;7.60;99.90
75262;DHT22;63859;51.064;4.580;2022-12-07T12:30:23;7.60;99.90
75262;DHT22;63859;51.064;4.580;2022-12-07T12:32:50;7.50;99.90
75262;DHT22;63859;51.064;4.580;2022-12-07T12:37:57;7.30;99.90
75262;DHT22;63859;51.064;4.580;2022-12-07T12:40:42;7.30;99.90
75262;DHT22;63859;51.064;4.580;2022-12-07T12:43:49;7.20;99.90
75262;DHT22;63859;51.064;4.580;2022-12-07T12:51:41;6.90;99.90
75262;DHT22;63859;51.064;4.580;2022-12-07T12:54:20;6.90;99.90
75262;DHT22;63859;51.064;4.580;2022-12-07T12:57:16;6.80;99.90
75262;DHT22;63859;51.064;4.580;2022-12-07T12:59:57;6.90;99.90
75262;DHT22;63859;51.064;4.580;2022-12-07T13:02:36;6.80;99.90
75262;DHT22;63859;51.064;4.580;2022-12-07T13:07:50;6.80;99.90
75262;DHT22;63859;51.064;4.580;2022-12-07T13:18:37;6.90;99.90
75262;DHT22;63859;51.064;4.580;2022-12-07T13:33:46;7.10;99.90
75262;DHT22;63859;51.064;4.580;2022-12-07T13:36:23;7.10;99.90
75262;DHT22;63859;51.064;4.580;2022-12-07T13:38:54;7.10;99.90
75262;DHT22;63859;51.064;4.580;2022-12-07T13:41:22;7.10;99.90
75262;DHT22;63859;51.064;4.580;2022-12-07T13:43:51;7.00;99.90
75262;DHT22;63859;51.064;4.580;2022-12-07T13:46:21;7.00;99.90
75262;DHT22;63859;51.064;4.580;2022-12-07T13:48:50;6.90;99.90
75262;DHT22;63859;51.064;4.580;2022-12-07T13:51:36;6.90;99.90
75262;DHT22;63859;51.064;4.580;2022-12-07T13:54:12;6.90;99.90
75262;DHT22;63859;51.064;4.580;2022-12-07T13:56:38;6.80;99.90
75262;DHT22;63859;51.064;4.580;2022-12-07T13:59:10;6.80;99.90
75262;DHT22;63859;51.064;4.580;2022-12-07T14:01:38;6.70;99.90
75262;DHT22;63859;51.064;4.580;2022-12-07T14:04:28;6.60;99.90
75262;DHT22;63859;51.064;4.580;2022-12-07T14:06:54;6.60;99.90
75262;DHT22;63859;51.064;4.580;2022-12-07T14:09:22;6.30;99.90
75262;DHT22;63859;51.064;4.580;2022-12-07T14:11:50;6.40;99.90
75262;DHT22;63859;51.064;4.580;2022-12-07T14:14:28;6.30;99.90
75262;DHT22;63859;51.064;4.580;2022-12-07T14:16:57;6.30;99.90
75262;DHT22;63859;51.064;4.580;2022-12-07T14:22:24;6.10;99.90
75262;DHT22;63859;51.064;4.580;2022-12-07T14:24:50;6.10;99.90
75262;DHT22;63859;51.064;4.580;2022-12-07T14:27:22;6.00;99.90
75262;DHT22;63859;51.064;4.580;2022-12-07T14:29:48;6.00;99.90
75262;DHT22;63859;51.064;4.580;2022-12-07T14:32:28;5.90;99.90
75262;DHT22;63859;51.064;4.580;2022-12-07T14:35:07;5.90;99.90
75262;DHT22;63859;51.064;4.580;2022-12-07T14:37:35;5.90;99.90
75262;DHT22;63859;51.064;4.580;2022-12-07T14:40:01;5.80;99.90
75262;DHT22;63859;51.064;4.580;2022-12-07T14:42:30;5.80;99.90
75262;DHT22;63859;51.064;4.580;2022-12-07T14:44:57;5.70;99.90
75262;DHT22;63859;51.064;4.580;2022-12-07T14:47:24;5.70;99.90
75262;DHT22;63859;51.064;4.580;2022-12-07T14:49:50;5.70;99.90
75262;DHT22;63859;51.064;4.580;2022-12-07T14:52:26;5.70;99.90
75262;DHT22;63859;51.064;4.580;2022-12-07T14:54:52;5.70;99.90
75262;DHT22;63859;51.064;4.580;2022-12-07T14:57:18;5.70;99.90
75262;DHT22;63859;51.064;4.580;2022-12-07T14:59:44;5.70;99.90
75262;DHT22;63859;51.064;4.580;2022-12-07T15:02:12;5.70;99.90
75262;DHT22;63859;51.064;4.580;2022-12-07T15:04:37;5.70;99.90
75262;DHT22;63859;51.064;4.580;2022-12-07T15:07:08;5.70;99.90
75262;DHT22;63859;51.064;4.580;2022-12-07T15:09:34;5.70;99.90
75262;DHT22;63859;51.064;4.580;2022-12-07T15:12:00;5.70;99.90
75262;DHT22;63859;51.064;4.580;2022-12-07T15:14:25;5.70;99.90
75262;DHT22;63859;51.064;4.580;2022-12-07T15:16:51;5.60;99.90
75262;DHT22;63859;51.064;4.580;2022-12-07T15:19:22;5.60;99.90
75262;DHT22;63859;51.064;4.580;2022-12-07T15:21:51;5.60;99.90
75262;DHT22;63859;51.064;4.580;2022-12-07T15:24:16;5.40;99.90
75262;DHT22;63859;51.064;4.580;2022-12-07T15:26:42;5.50;99.90
75262;DHT22;63859;51.064;4.580;2022-12-07T15:29:08;5.50;99.90
75262;DHT22;63859;51.064;4.580;2022-12-07T15:31:34;5.40;99.90
75262;DHT22;63859;51.064;4.580;2022-12-07T15:34:00;5.40;99.90
75262;DHT22;63859;51.064;4.580;2022-12-07T15:36:28;5.40;99.90
75262;DHT22;63859;51.064;4.580;2022-12-07T15:38:55;5.40;99.90
75262;DHT22;63859;51.064;4.580;2022-12-07T15:41:21;5.40;99.90
75262;DHT22;63859;51.064;4.580;2022-12-07T15:43:47;5.40;99.90
75262;DHT22;63859;51.064;4.580;2022-12-07T15:46:35;5.40;99.90
75262;DHT22;63859;51.064;4.580;2022-12-07T15:49:03;5.40;99.90
75262;DHT22;63859;51.064;4.580;2022-12-07T15:51:30;5.30;99.90
75262;DHT22;63859;51.064;4.580;2022-12-07T15:53:57;5.30;99.90
75262;DHT22;63859;51.064;4.580;2022-12-07T15:56:23;5.30;99.90
75262;DHT22;63859;51.064;4.580;2022-12-07T15:58:49;5.30;99.90
75262;DHT22;63859;51.064;4.580;2022-12-07T16:01:17;5.30;99.90
75262;DHT22;63859;51.064;4.580;2022-12-07T16:03:44;5.30;99.90
75262;DHT22;63859;51.064;4.580;2022-12-07T16:06:10;5.30;99.90
75262;DHT22;63859;51.064;4.580;2022-12-07T16:08:36;5.30;99.90
75262;DHT22;63859;51.064;4.580;2022-12-07T16:11:08;5.30;99.90
75262;DHT22;63859;51.064;4.580;2022-12-07T16:13:34;5.30;99.90
75262;DHT22;63859;51.064;4.580;2022-12-07T16:16:09;5.30;99.90
75262;DHT22;63859;51.064;4.580;2022-12-07T16:18:35;5.30;99.90
75262;DHT22;63859;51.064;4.580;2022-12-07T16:21:01;5.30;99.90
75262;DHT22;63859;51.064;4.580;2022-12-07T16:23:27;5.30;99.90
75262;DHT22;63859;51.064;4.580;2022-12-07T16:25:53;5.30;99.90
75262;DHT22;63859;51.064;4.580;2022-12-07T16:28:19;5.30;99.90
75262;DHT22;63859;51.064;4.580;2022-12-07T16:30:44;5.30;99.90
75262;DHT22;63859;51.064;4.580;2022-12-07T16:33:10;5.30;99.90
75262;DHT22;63859;51.064;4.580;2022-12-07T16:35:39;5.30;99.90
75262;DHT22;63859;51.064;4.580;2022-12-07T16:38:06;5.30;99.90
75262;DHT22;63859;51.064;4.580;2022-12-07T16:40:32;5.30;99.90
75262;DHT22;63859;51.064;4.580;2022-12-07T16:42:57;5.20;99.90
75262;DHT22;63859;51.064;4.580;2022-12-07T16:45:23;5.30;99.90
75262;DHT22;63859;51.064;4.580;2022-12-07T16:47:49;5.30;99.90
75262;DHT22;63859;51.064;4.580;2022-12-07T16:50:14;5.30;99.90
75262;DHT22;63859;51.064;4.580;2022-12-07T16:52:40;5.30;99.90
75262;DHT22;63859;51.064;4.580;2022-12-07T16:55:06;5.30;99.90
75262;DHT22;63859;51.064;4.580;2022-12-07T16:57:31;5.30;99.90
75262;DHT22;63859;51.064;4.580;2022-12-07T16:59:58;5.30;99.90
75262;DHT22;63859;51.064;4.580;2022-12-07T17:02:23;5.30;99.90
75262;DHT22;63859;51.064;4.580;2022-12-07T17:04:49;5.30;99.90
75262;DHT22;63859;51.064;4.580;2022-12-07T17:07:15;5.20;99.90
75262;DHT22;63859;51.064;4.580;2022-12-07T17:09:41;5.30;99.90
75262;DHT22;63859;51.064;4.580;2022-12-07T17:12:06;5.20;99.90
75262;DHT22;63859;51.064;4.580;2022-12-07T17:14:32;5.20;99.90
75262;DHT22;63859;51.064;4.580;2022-12-07T17:17:16;5.20;99.90
75262;DHT22;63859;51.064;4.580;2022-12-07T17:19:42;5.20;99.90
75262;DHT22;63859;51.064;4.580;2022-12-07T17:22:07;5.10;99.90
75262;DHT22;63859;51.064;4.580;2022-12-07T17:24:33;5.10;99.90
75262;DHT22;63859;51.064;4.580;2022-12-07T17:26:59;5.10;99.90
75262;DHT22;63859;51.064;4.580;2022-12-07T17:29:25;5.10;99.90
75262;DHT22;63859;51.064;4.580;2022-12-07T17:31:50;5.10;99.90
75262;DHT22;63859;51.064;4.580;2022-12-07T17:34:16;5.10;99.90
75262;DHT22;63859;51.064;4.580;2022-12-07T17:36:41;5.00;99.90
75262;DHT22;63859;51.064;4.580;2022-12-07T17:39:09;5.00;99.90
75262;DHT22;63859;51.064;4.580;2022-12-07T17:41:35;5.00;99.90
75262;DHT22;63859;51.064;4.580;2022-12-07T17:44:19;5.00;99.90
75262;DHT22;63859;51.064;4.580;2022-12-07T17:46:48;5.00;99.90
75262;DHT22;63859;51.064;4.580;2022-12-07T17:49:14;5.00;99.90
75262;DHT22;63859;51.064;4.580;2022-12-07T17:51:40;5.00;99.90
75262;DHT22;63859;51.064;4.580;2022-12-07T17:54:24;5.00;99.90